WXM80 ListenWXM80 Stop

You find our weather info also at:

UK Metoffice

WeatherCloud

Weather Underground

Northeastern Weather Network

AWEKAS

Citizen Weather Observer Program (CWOP)

HAMweather, WeatherForYou, PWS Weather


Weather Underground History page Text

Daily Summary for February 5, 2017 Units:  Metric    English   Both
« Previous Day
Next Day »
Daily Weekly Monthly Yearly Custom
  High: Low: Average:
Temperature: 6.2 °C -1.8 °C 2.6 °C
Dew Point: -1.8 °C -10.2 °C -5.3 °C
Humidity: 68 % 44 % 56 %
Wind Speed: 16.7 km/h 0 km/h 6.1 km/h
Wind Gust: 31.5 km/h - -
Wind:- - WSW
Pressure: 1023.6 hPa 1009 hPa -
Precipitation: 0 mm    
Historical Graphs
 
 
Tabular Data for February 5, 2017
Time Temperature Dew Point Pressure Wind Wind Speed Wind Gust Humidity Rainfall Rate (Hourly)
00:01 -0.1 °C -9.3 °C 1023.6 hPa SW 1.9 km/h 5.6 km/h 50 % 0 mm
00:06 -0.2 °C -9.3 °C 1023.6 hPa SW 4.3 km/h 5.6 km/h 50 % 0 mm
00:11 -0.2 °C -9.4 °C 1023.6 hPa SW 3.9 km/h 9.3 km/h 50 % 0 mm
00:16 -0.2 °C -9.7 °C 1023.6 hPa SW 4.3 km/h 5.6 km/h 49 % 0 mm
00:21 -0.3 °C -9.7 °C 1023.6 hPa SW 3.1 km/h 5.6 km/h 49 % 0 mm
00:26 -0.3 °C -9.8 °C 1023.6 hPa WSW 3.1 km/h 5.6 km/h 49 % 0 mm
00:31 -0.3 °C -9.8 °C 1023.2 hPa SW 3.9 km/h 5.6 km/h 49 % 0 mm
00:36 -0.4 °C -9.8 °C 1023.2 hPa SW 0.6 km/h 1.9 km/h 49 % 0 mm
00:41 -0.4 °C -9.9 °C 1023.2 hPa SW 1 km/h 3.7 km/h 49 % 0 mm
00:46 -0.5 °C -9.9 °C 1022.9 hPa Calm     49 % 0 mm
00:51 -0.5 °C -9.9 °C 1022.9 hPa SW 1.3 km/h 5.6 km/h 49 % 0 mm
00:56 -0.6 °C -10 °C 1023.2 hPa SW 1.8 km/h 3.7 km/h 49 % 0 mm
01:01 -0.6 °C -9.8 °C 1023.2 hPa SW 1.9 km/h 3.7 km/h 50 % 0 mm
01:06 -0.7 °C -9.8 °C 1023.2 hPa Calm   1.9 km/h 50 % 0 mm
01:11 -0.7 °C -9.9 °C 1022.9 hPa SW 0.2 km/h 1.9 km/h 50 % 0 mm
01:16 -0.8 °C -9.7 °C 1022.9 hPa SW 2.1 km/h 5.6 km/h 51 % 0 mm
01:21 -0.8 °C -9.9 °C 1022.9 hPa SW 0.2 km/h   50 % 0 mm
01:26 -0.8 °C -9.7 °C 1022.9 hPa SW 0.3 km/h 1.9 km/h 51 % 0 mm
01:31 -0.9 °C -9.8 °C 1022.9 hPa SW 0.2 km/h 1.6 km/h 51 % 0 mm
01:36 -0.9 °C -9.8 °C 1022.9 hPa SW 0.5 km/h 3.7 km/h 51 % 0 mm
01:41 -1 °C -9.9 °C 1022.9 hPa SW 2.6 km/h 5.6 km/h 51 % 0 mm
01:46 -1.1 °C -9.9 °C 1022.9 hPa SW 0.2 km/h 1.9 km/h 51 % 0 mm
01:51 -1.1 °C -9.7 °C 1022.9 hPa SW 2.3 km/h 4.8 km/h 52 % 0 mm
01:56 -1.2 °C -9.8 °C 1022.9 hPa SW 2.3 km/h 5.6 km/h 52 % 0 mm
02:01 -1.3 °C -9.9 °C 1022.9 hPa SW 0.2 km/h 1.9 km/h 52 % 0 mm
02:06 -1.3 °C -9.9 °C 1022.6 hPa SW 1.6 km/h 3.7 km/h 52 % 0 mm
02:12 -1.4 °C -10 °C 1022.6 hPa SW 0.6 km/h 3.7 km/h 52 % 0 mm
02:17 -1.4 °C -10.1 °C 1022.6 hPa SW 1.1 km/h 3.7 km/h 52 % 0 mm
02:22 -1.5 °C -10.1 °C 1022.6 hPa Calm     52 % 0 mm
02:27 -1.6 °C -10.2 °C 1022.6 hPa SW 1.9 km/h 5.6 km/h 52 % 0 mm
02:32 -1.6 °C -9.9 °C 1022.2 hPa SW 0.8 km/h 1.9 km/h 53 % 0 mm
02:37 -1.7 °C -10 °C 1022.2 hPa SW 0.5 km/h 1.9 km/h 53 % 0 mm
02:42 -1.7 °C -10 °C 1022.2 hPa SW 0.8 km/h 3.7 km/h 53 % 0 mm
02:47 -1.7 °C -10.1 °C 1022.6 hPa SW 0.6 km/h 1.9 km/h 53 % 0 mm
02:52 -1.8 °C -10.1 °C 1022.2 hPa SSW 0.2 km/h 3.7 km/h 53 % 0 mm
02:57 -1.8 °C -9.9 °C 1022.2 hPa SSW 1.4 km/h 5.6 km/h 54 % 0 mm
03:02 -1.8 °C -9.9 °C 1021.9 hPa SSW 2.4 km/h 4.8 km/h 54 % 0 mm
03:07 -1.8 °C -9.7 °C 1021.9 hPa SSW 1.9 km/h 3.7 km/h 55 % 0 mm
03:12 -1.8 °C -9.4 °C 1021.9 hPa SSW 7.9 km/h 9.7 km/h 56 % 0 mm
03:17 -1.8 °C -9.4 °C 1021.6 hPa SSW 1.6 km/h 3.7 km/h 56 % 0 mm
03:22 -1.7 °C -9.1 °C 1021.6 hPa SSW 4 km/h 5.6 km/h 57 % 0 mm
03:27 -1.7 °C -9.1 °C 1021.6 hPa SW 3.2 km/h 4.8 km/h 57 % 0 mm
03:32 -1.7 °C -9.1 °C 1021.6 hPa SW 2.9 km/h 5.6 km/h 57 % 0 mm
03:37 -1.7 °C -9.1 °C 1021.2 hPa SW 0.6 km/h 5.6 km/h 57 % 0 mm
03:42 -1.6 °C -8.8 °C 1021.2 hPa SW 1.9 km/h 5.6 km/h 58 % 0 mm
03:47 -1.6 °C -8.8 °C 1020.9 hPa Calm   5.6 km/h 58 % 0 mm
03:52 -1.6 °C -8.8 °C 1020.9 hPa SW 0.2 km/h 1.9 km/h 58 % 0 mm
03:57 -1.5 °C -8.7 °C 1020.9 hPa Calm     58 % 0 mm
03:58 -1.5 °C -8.7 °C 1020.9 hPa Calm   1.9 km/h 58 % 0 mm
04:03 -1.5 °C -8.7 °C 1020.9 hPa SW 1.6 km/h 3.2 km/h 58 % 0 mm
04:08 -1.5 °C -8.4 °C 1020.9 hPa SW 1.6 km/h 4.8 km/h 59 % 0 mm
04:13 -1.4 °C -8.4 °C 1020.5 hPa SW 1.6 km/h 6.4 km/h 59 % 0 mm
04:18 -1.5 °C -8.5 °C 1020.5 hPa SSW 4.3 km/h 5.6 km/h 59 % 0 mm
04:23 -1.4 °C -8.4 °C 1020.5 hPa SW 3.2 km/h 11.3 km/h 59 % 0 mm
04:28 -1.4 °C -8.4 °C 1020.5 hPa SW 1.6 km/h 8 km/h 59 % 0 mm
04:33 -1.3 °C -8.3 °C 1020.5 hPa SSW 1.6 km/h 6.4 km/h 59 % 0 mm
04:38 -1.3 °C -8.1 °C 1020.5 hPa SSW 3.4 km/h 6.4 km/h 60 % 0 mm
04:43 -1.3 °C -8.1 °C 1020.5 hPa SSW 1.6 km/h 9.7 km/h 60 % 0 mm
04:48 -1.2 °C -7.8 °C 1020.2 hPa SSW 1.6 km/h 8 km/h 61 % 0 mm
04:53 -1.2 °C -7.7 °C 1020.2 hPa SSW 3.2 km/h 11.3 km/h 61 % 0 mm
04:59 -1.1 °C -7.6 °C 1020.2 hPa SSW 3.7 km/h 11.1 km/h 61 % 0 mm
05:04 -1 °C -7.6 °C 1019.9 hPa SSW 3.4 km/h 8 km/h 61 % 0 mm
05:09 -0.9 °C -7.3 °C 1019.9 hPa South 4.3 km/h 7.4 km/h 62 % 0 mm
05:14 -0.9 °C -7.3 °C 1019.9 hPa SSW 5.3 km/h 7.4 km/h 62 % 0 mm
05:19 -0.8 °C -7.4 °C 1019.9 hPa SSW 4.2 km/h 5.6 km/h 61 % 0 mm
05:24 -0.7 °C -7.3 °C 1019.9 hPa SSW 4.3 km/h 7.4 km/h 61 % 0 mm
05:29 -0.7 °C -7.1 °C 1019.5 hPa SSW 4 km/h 7.4 km/h 62 % 0 mm
05:34 -0.6 °C -7 °C 1019.5 hPa South 4.7 km/h 7.4 km/h 62 % 0 mm
05:39 -0.5 °C -6.9 °C 1019.5 hPa South 2.6 km/h 5.6 km/h 62 % 0 mm
05:44 -0.4 °C -6.8 °C 1019.2 hPa SSW 3.5 km/h 5.6 km/h 62 % 0 mm
05:49 -0.4 °C -6.6 °C 1019.2 hPa SSW 4.2 km/h 7.4 km/h 63 % 0 mm
05:54 -0.3 °C -6.6 °C 1019.2 hPa South 4 km/h 7.4 km/h 63 % 0 mm
05:59 -0.3 °C -6.6 °C 1018.8 hPa SSW 2.9 km/h 5.6 km/h 63 % 0 mm
06:04 -0.3 °C -6.6 °C 1018.8 hPa South 4.2 km/h 9.3 km/h 63 % 0 mm
06:09 -0.3 °C -6.6 °C 1018.5 hPa South 4.8 km/h 7.4 km/h 63 % 0 mm
06:14 -0.3 °C -6.3 °C 1018.5 hPa South 4.7 km/h 6.4 km/h 64 % 0 mm
06:19 -0.3 °C -6.3 °C 1018.5 hPa South 4 km/h 5.6 km/h 64 % 0 mm
06:24 -0.4 °C -6.4 °C 1018.5 hPa SSW 3.7 km/h 5.6 km/h 64 % 0 mm
06:29 -0.4 °C -6.4 °C 1018.5 hPa SW 1.3 km/h 3.7 km/h 64 % 0 mm
06:34 -0.4 °C -6.2 °C 1018.5 hPa SSW 3.4 km/h 3.7 km/h 65 % 0 mm
06:39 -0.4 °C -6.2 °C 1018.5 hPa SSW 7.4 km/h 8 km/h 65 % 0 mm
06:44 -0.3 °C -6.1 °C 1018.5 hPa SSW 3.9 km/h 5.6 km/h 65 % 0 mm
06:49 -0.3 °C -5.9 °C 1018.2 hPa SW 5.1 km/h 9.3 km/h 66 % 0 mm
06:54 -0.3 °C -6.1 °C 1018.2 hPa South 3.7 km/h 9.3 km/h 65 % 0 mm
06:59 -0.3 °C -5.9 °C 1018.2 hPa SSW 4.2 km/h 7.4 km/h 66 % 0 mm
07:05 -0.2 °C -6 °C 1018.2 hPa SSW 3.5 km/h 7.4 km/h 65 % 0 mm
07:10 -0.2 °C -6 °C 1018.2 hPa SW 4.7 km/h 6.4 km/h 65 % 0 mm
07:15 -0.2 °C -5.8 °C 1018.2 hPa SW 5.3 km/h 12.9 km/h 66 % 0 mm
07:20 -0.1 °C -5.7 °C 1018.2 hPa SW 8.2 km/h 13 km/h 66 % 0 mm
07:25 0 °C -5.6 °C 1018.2 hPa SW 4.5 km/h 5.6 km/h 66 % 0 mm
07:30 0.1 °C -5.6 °C 1018.2 hPa SW 5 km/h 11.3 km/h 66 % 0 mm
07:35 0.2 °C -5.4 °C 1017.8 hPa SSW 3.4 km/h 5.6 km/h 66 % 0 mm
07:40 0.2 °C -5.4 °C 1017.8 hPa SW 7.1 km/h 9.3 km/h 66 % 0 mm
07:45 0.3 °C -5.3 °C 1017.5 hPa SSW 5.1 km/h 7.4 km/h 66 % 0 mm
07:50 0.4 °C -5.2 °C 1017.5 hPa WSW 2.7 km/h 8 km/h 66 % 0 mm
07:55 0.4 °C -5.2 °C 1017.5 hPa SSW 2.3 km/h 5.6 km/h 66 % 0 mm
08:00 0.5 °C -5.1 °C 1017.5 hPa SW 3.1 km/h 5.6 km/h 66 % 0 mm
08:05 0.6 °C -5 °C 1017.2 hPa WSW 4.8 km/h 11.1 km/h 66 % 0 mm
08:10 0.7 °C -5.1 °C 1017.2 hPa SW 4.2 km/h 5.6 km/h 65 % 0 mm
08:15 0.8 °C -5 °C 1017.2 hPa SW 7.1 km/h 13 km/h 65 % 0 mm
08:20 1 °C -5.1 °C 1016.8 hPa SSW 6 km/h 11.1 km/h 64 % 0 mm
08:25 1.2 °C -4.8 °C 1016.8 hPa SSW 9.7 km/h 11.3 km/h 64 % 0 mm
08:30 1.5 °C -5 °C 1016.8 hPa SSW 2.9 km/h 8 km/h 62 % 0 mm
08:35 1.7 °C -5.1 °C 1016.5 hPa SSW 7.6 km/h 9.7 km/h 61 % 0 mm
08:40 1.9 °C -4.8 °C 1016.5 hPa SSW 6 km/h 18.5 km/h 61 % 0 mm
08:45 2.2 °C -4.6 °C 1016.5 hPa SW 12.7 km/h 18.5 km/h 61 % 0 mm
08:50 2.4 °C -4.6 °C 1016.5 hPa SSW 7.7 km/h 16.7 km/h 60 % 0 mm
08:56 2.6 °C -4.7 °C 1016.5 hPa SSW 10.1 km/h 18.5 km/h 59 % 0 mm
09:01 2.7 °C -4.7 °C 1016.1 hPa SSW 9.8 km/h 18.5 km/h 58 % 0 mm
09:06 2.8 °C -4.8 °C 1016.1 hPa SW 6.8 km/h 14.8 km/h 57 % 0 mm
09:11 2.9 °C -5 °C 1015.8 hPa SSW 10.3 km/h 20.4 km/h 56 % 0 mm
09:16 3.1 °C -5.1 °C 1015.8 hPa SSW 6.4 km/h 18.5 km/h 55 % 0 mm
09:21 3.2 °C -5.3 °C 1015.8 hPa SW 7.4 km/h 18.5 km/h 54 % 0 mm
09:26 3.3 °C -5.2 °C 1015.8 hPa SSW 14.5 km/h 22.2 km/h 54 % 0 mm
09:31 3.4 °C -5.2 °C 1015.8 hPa West 6.9 km/h 18.5 km/h 53 % 0 mm
09:36 3.6 °C -5.4 °C 1015.5 hPa South 10 km/h 18.5 km/h 52 % 0 mm
09:41 3.8 °C -5.2 °C 1015.5 hPa South 8.2 km/h 13 km/h 52 % 0 mm
09:46 4 °C -5.5 °C 1015.5 hPa WSW 11.7 km/h 22.5 km/h 50 % 0 mm
09:51 4.1 °C -6.2 °C 1015.5 hPa SW 10.8 km/h 29.6 km/h 47 % 0 mm
09:56 4.3 °C -6.1 °C 1015.1 hPa SSW 16.7 km/h 25.7 km/h 47 % 0 mm
10:01 4.5 °C -6.4 °C 1015.1 hPa SW 15 km/h 20.9 km/h 45 % 0 mm
10:06 4.6 °C -6.3 °C 1015.1 hPa SW 14.2 km/h 29.6 km/h 45 % 0 mm
10:11 4.6 °C -6.6 °C 1015.1 hPa SSW 12.9 km/h 25.9 km/h 44 % 0 mm
10:16 4.6 °C -6.4 °C 1015.1 hPa SSW 7.4 km/h 7.4 km/h 45 % 0 mm
10:21 4.5 °C -6.4 °C 1015.1 hPa SSW 14.2 km/h 19.3 km/h 45 % 0 mm
10:26 4.4 °C -6.5 °C 1014.8 hPa WSW 10.3 km/h 24.1 km/h 45 % 0 mm
10:31 4.4 °C -6.5 °C 1014.8 hPa SW 13.5 km/h 18.5 km/h 45 % 0 mm
10:36 4.4 °C -6.2 °C 1014.8 hPa SSW 15.4 km/h 20.4 km/h 46 % 0 mm
10:42 4.3 °C -6.3 °C 1014.4 hPa SW 12.6 km/h 18.5 km/h 46 % 0 mm
10:47 4.3 °C -6.1 °C 1014.1 hPa SW 5.8 km/h 13 km/h 47 % 0 mm
10:52 4.3 °C -6 °C 1014.1 hPa WSW 7.9 km/h 14.8 km/h 47 % 0 mm
10:57 4.4 °C -6.2 °C 1014.1 hPa WSW 8 km/h 13 km/h 46 % 0 mm
11:02 4.4 °C -6.2 °C 1014.4 hPa SW 9.7 km/h 19.3 km/h 46 % 0 mm
11:07 4.4 °C -6.2 °C 1014.1 hPa SW 10.8 km/h 18.5 km/h 46 % 0 mm
11:12 4.6 °C -6.1 °C 1013.8 hPa SW 14.8 km/h 29.6 km/h 46 % 0 mm
11:17 4.5 °C -6.1 °C 1014.1 hPa WSW 15.8 km/h 24.1 km/h 46 % 0 mm
11:22 4.4 °C -5.9 °C 1013.8 hPa WSW 14 km/h 20.4 km/h 47 % 0 mm
11:27 4.4 °C -5.9 °C 1013.8 hPa WSW 4.7 km/h 7.4 km/h 47 % 0 mm
11:32 4.4 °C -5.9 °C 1013.8 hPa SSW 10.6 km/h 18.5 km/h 47 % 0 mm
11:37 4.4 °C -5.6 °C 1013.8 hPa WSW 5.8 km/h 9.3 km/h 48 % 0 mm
11:42 4.4 °C -5.3 °C 1013.4 hPa West 10.5 km/h 18.5 km/h 49 % 0 mm
11:47 4.5 °C -5.3 °C 1013.4 hPa WSW 7.7 km/h 14.8 km/h 49 % 0 mm
11:52 4.6 °C -5.3 °C 1013.1 hPa SW 9.5 km/h 12.9 km/h 49 % 0 mm
11:57 4.6 °C -4.7 °C 1013.1 hPa West 4.8 km/h 8 km/h 51 % 0 mm
12:02 4.7 °C -5.2 °C 1012.8 hPa SW 10.1 km/h 14.5 km/h 49 % 0 mm
12:07 4.7 °C -5.2 °C 1012.8 hPa WSW 7.2 km/h 14.5 km/h 49 % 0 mm
12:12 4.6 °C -5.5 °C 1012.8 hPa WNW 8.4 km/h 14.8 km/h 48 % 0 mm
12:17 4.6 °C -5.2 °C 1012.4 hPa WNW 5.3 km/h 9.7 km/h 49 % 0 mm
12:22 4.6 °C -5.2 °C 1012.4 hPa West 7.2 km/h 14.8 km/h 49 % 0 mm
12:27 4.6 °C -4.9 °C 1012.1 hPa WSW 6 km/h 11.3 km/h 50 % 0 mm
12:33 4.7 °C -5.2 °C 1012.1 hPa SSW 5 km/h 9.3 km/h 49 % 0 mm
12:35 4.7 °C -5.1 °C 1012.1 hPa SW 7.6 km/h 11.3 km/h 49 % 0 mm
12:40 4.8 °C -5.1 °C 1011.7 hPa West 2.9 km/h 5.6 km/h 49 % 0 mm
12:45 4.9 °C -4.9 °C 1011.4 hPa West 7.2 km/h 11.1 km/h 49 % 0 mm
12:50 4.9 °C -4.9 °C 1011.4 hPa WNW 9.5 km/h 13 km/h 49 % 0 mm
12:55 4.9 °C -4.9 °C 1011.7 hPa WNW 8.4 km/h 14.5 km/h 49 % 0 mm
13:00 4.9 °C -4.6 °C 1011.4 hPa WNW 4.2 km/h 8 km/h 50 % 0 mm
13:05 4.9 °C -4.6 °C 1011.1 hPa NW 3.2 km/h 9.3 km/h 50 % 0 mm
13:10 5.1 °C -4.5 °C 1011.1 hPa WSW 8.2 km/h 13 km/h 50 % 0 mm
13:15 5.3 °C -3.3 °C 1011.1 hPa NW 5.1 km/h 9.3 km/h 54 % 0 mm
13:20 5.3 °C -3.5 °C 1011.1 hPa WSW 7.2 km/h 9.3 km/h 53 % 0 mm
13:25 5.3 °C -3.2 °C 1011.1 hPa West 4.7 km/h 9.7 km/h 54 % 0 mm
13:30 5.3 °C -3.6 °C 1010.7 hPa NW 4.7 km/h 6.4 km/h 53 % 0 mm
13:35 5.2 °C -3.3 °C 1010.7 hPa WNW 4.2 km/h 7.4 km/h 54 % 0 mm
13:40 5.1 °C -3.4 °C 1010.7 hPa WNW 7.9 km/h 11.1 km/h 54 % 0 mm
13:45 5 °C -3.3 °C 1010.7 hPa NW 6.8 km/h 9.7 km/h 55 % 0 mm
13:50 5 °C -3.3 °C 1010.4 hPa NW 3.1 km/h 11.1 km/h 55 % 0 mm
13:56 4.9 °C -3.7 °C 1010.4 hPa West 8.2 km/h 11.1 km/h 54 % 0 mm
14:01 4.8 °C -3.8 °C 1010.4 hPa West 11.1 km/h 16.7 km/h 54 % 0 mm
14:06 4.4 °C -3.3 °C 1010.4 hPa West 5.8 km/h 14.8 km/h 57 % 0 mm
14:11 4.2 °C -2.4 °C 1010.4 hPa West 5.1 km/h 13 km/h 62 % 0 mm
14:16 3.9 °C -2.1 °C 1010 hPa West 3.2 km/h 5.6 km/h 65 % 0 mm
14:21 3.7 °C -2.1 °C 1009.7 hPa SSW 9.5 km/h 16.7 km/h 66 % 0 mm
14:26 3.6 °C -1.9 °C 1009.7 hPa WSW 4.7 km/h 9.3 km/h 67 % 0 mm
14:31 3.5 °C -2.1 °C 1009.7 hPa WSW 5 km/h 11.3 km/h 67 % 0 mm
14:36 3.4 °C -1.9 °C 1009.7 hPa West 4.8 km/h 13 km/h 68 % 0 mm
14:41 3.3 °C -2 °C 1009.4 hPa WSW 6.1 km/h 8 km/h 68 % 0 mm
14:46 3.3 °C -2 °C 1009.4 hPa WNW 6 km/h 11.1 km/h 68 % 0 mm
14:51 3.4 °C -1.9 °C 1009 hPa West 2.7 km/h 5.6 km/h 68 % 0 mm
14:56 3.4 °C -1.9 °C 1009 hPa West 6.1 km/h 9.3 km/h 68 % 0 mm
15:01 3.4 °C -1.9 °C 1009 hPa SW 2.6 km/h 6.4 km/h 68 % 0 mm
15:06 3.5 °C -2.1 °C 1009 hPa West 5.1 km/h 6.4 km/h 67 % 0 mm
15:11 3.6 °C -1.8 °C 1009 hPa West 2.9 km/h 6.4 km/h 68 % 0 mm
15:16 3.6 °C -1.9 °C 1009 hPa WSW 4.5 km/h 6.4 km/h 67 % 0 mm
15:21 3.7 °C -1.9 °C 1009 hPa West 2.4 km/h 6.4 km/h 67 % 0 mm
15:26 3.8 °C -2 °C 1009 hPa WSW 7.4 km/h 11.1 km/h 66 % 0 mm
15:31 3.8 °C -1.9 °C 1009 hPa West 5.6 km/h 13 km/h 66 % 0 mm
15:37 3.8 °C -1.9 °C 1009 hPa WSW 6.3 km/h 7.4 km/h 66 % 0 mm
15:42 3.8 °C -1.9 °C 1009 hPa WSW 5.5 km/h 11.1 km/h 66 % 0 mm
15:47 3.8 °C -1.9 °C 1009 hPa WSW 5.1 km/h 9.7 km/h 66 % 0 mm
15:52 3.9 °C -1.9 °C 1009 hPa West 7.2 km/h 13 km/h 66 % 0 mm
15:57 3.9 °C -1.8 °C 1009.4 hPa WSW 6.6 km/h 11.1 km/h 66 % 0 mm
16:02 3.9 °C -1.8 °C 1009 hPa WSW 4 km/h 9.3 km/h 66 % 0 mm
16:07 4 °C -1.8 °C 1009 hPa SW 5.5 km/h 12.9 km/h 66 % 0 mm
16:12 4 °C -2 °C 1009 hPa WSW 3.2 km/h 5.6 km/h 65 % 0 mm
16:17 4 °C -1.8 °C 1009 hPa West 5.5 km/h 7.4 km/h 66 % 0 mm
16:22 4 °C -2 °C 1009 hPa WSW 6.4 km/h 11.1 km/h 65 % 0 mm
16:27 4 °C -2 °C 1009.4 hPa WSW 2.6 km/h 7.4 km/h 65 % 0 mm
16:32 4 °C -2 °C 1009.4 hPa WSW 4.7 km/h 6.4 km/h 65 % 0 mm
16:37 3.9 °C -2.1 °C 1009.4 hPa West 2.7 km/h 5.6 km/h 65 % 0 mm
16:42 3.9 °C -2.1 °C 1009.4 hPa West 4.3 km/h 7.4 km/h 65 % 0 mm
16:47 3.9 °C -2.1 °C 1009.4 hPa WSW 1.4 km/h 1.9 km/h 65 % 0 mm
16:52 3.8 °C -2.2 °C 1009.4 hPa West 4.2 km/h 5.6 km/h 65 % 0 mm
16:57 3.8 °C -2.2 °C 1009.4 hPa SW 1.6 km/h 5.6 km/h 65 % 0 mm
17:02 3.7 °C -2.1 °C 1009.4 hPa SW 3.9 km/h 5.6 km/h 66 % 0 mm
17:07 3.6 °C -2.2 °C 1009.4 hPa SW 1.3 km/h 3.7 km/h 66 % 0 mm
17:12 3.5 °C -2.3 °C 1009.4 hPa SSW 0.6 km/h   66 % 0 mm
17:17 3.4 °C -2.3 °C 1009.4 hPa SSW 0.8 km/h 1.9 km/h 66 % 0 mm
17:22 3.3 °C -2.4 °C 1009.4 hPa SW 2.3 km/h 6.4 km/h 66 % 0 mm
17:27 3.2 °C -3 °C 1009.4 hPa WSW 1.6 km/h 5.6 km/h 64 % 0 mm
17:28 3.2 °C -3 °C 1009.4 hPa SW 3.2 km/h 11.3 km/h 64 % 0 mm
17:33 3.1 °C -3.5 °C 1009.4 hPa SW 4.8 km/h 11.3 km/h 62 % 0 mm
17:36 3.1 °C -3.7 °C 1009.7 hPa WSW 3.4 km/h 6.4 km/h 61 % 0 mm
17:41 3.1 °C -3.9 °C 1009.7 hPa WSW 9 km/h 14.8 km/h 60 % 0 mm
17:46 3.2 °C -4.3 °C 1009.7 hPa WSW 11.7 km/h 22.2 km/h 58 % 0 mm
17:51 3.6 °C -4.2 °C 1009.7 hPa WNW 11.9 km/h 20.4 km/h 57 % 0 mm
17:56 3.8 °C -4.4 °C 1009.4 hPa WSW 6.1 km/h 14.8 km/h 55 % 0 mm
18:01 4.1 °C -4.2 °C 1009.7 hPa SW 9.8 km/h 18.5 km/h 55 % 0 mm
18:06 4.2 °C -4.3 °C 1009.7 hPa WSW 6.8 km/h 11.3 km/h 54 % 0 mm
18:11 4.3 °C -4.2 °C 1010 hPa SW 9.3 km/h 18.5 km/h 54 % 0 mm
18:16 4.6 °C -4.2 °C 1010 hPa West 10.6 km/h 20.9 km/h 53 % 0 mm
18:17 4.6 °C -4.2 °C 1010 hPa West 7.6 km/h 20.4 km/h 53 % 0 mm
18:22 4.7 °C -4.4 °C 1010 hPa WSW 9.7 km/h 22.2 km/h 52 % 0 mm
18:27 4.7 °C -4.3 °C 1010 hPa WNW 8.5 km/h 11.1 km/h 52 % 0 mm
18:32 4.8 °C -4.3 °C 1010 hPa West 6.4 km/h 13 km/h 52 % 0 mm
18:37 4.7 °C -4.6 °C 1010 hPa WSW 9.8 km/h 24.1 km/h 51 % 0 mm
18:42 4.7 °C -4.6 °C 1010.4 hPa SW 6.1 km/h 11.1 km/h 51 % 0 mm
18:47 4.7 °C -4.4 °C 1010 hPa WSW 5.8 km/h 11.1 km/h 52 % 0 mm
18:52 4.7 °C -4.4 °C 1010 hPa WSW 9.3 km/h 16.1 km/h 52 % 0 mm
18:57 4.6 °C -4.4 °C 1010.4 hPa WSW 7.2 km/h 13 km/h 52 % 0 mm
19:02 4.6 °C -4.4 °C 1010.4 hPa WSW 12.6 km/h 22.2 km/h 52 % 0 mm
19:08 4.5 °C -4.5 °C 1010.4 hPa WNW 11.6 km/h 17.7 km/h 52 % 0 mm
19:13 4.5 °C -4.5 °C 1010.4 hPa SW 9.2 km/h 18.5 km/h 52 % 0 mm
19:18 4.4 °C -4.6 °C 1010.4 hPa West 9.2 km/h 22.5 km/h 52 % 0 mm
19:23 4.4 °C -4.3 °C 1010.7 hPa WSW 6.4 km/h 14.8 km/h 53 % 0 mm
19:28 4.4 °C -4.4 °C 1010.7 hPa WSW 6 km/h 14.8 km/h 53 % 0 mm
19:33 4.4 °C -4.4 °C 1010.7 hPa WSW 9.2 km/h 22.2 km/h 53 % 0 mm
19:38 4.4 °C -4.6 °C 1010.7 hPa West 11.9 km/h 18.5 km/h 52 % 0 mm
19:43 4.4 °C -4.6 °C 1010.7 hPa WSW 5.3 km/h 11.1 km/h 52 % 0 mm
19:48 4.4 °C -4.6 °C 1010.7 hPa WSW 8.9 km/h 11.3 km/h 52 % 0 mm
19:53 4.5 °C -4.3 °C 1010.7 hPa SW 1.8 km/h 11.1 km/h 53 % 0 mm
19:58 4.5 °C -4.3 °C 1010.7 hPa SW 12.6 km/h 18.5 km/h 53 % 0 mm
20:03 4.6 °C -4.4 °C 1010.7 hPa SW 11.3 km/h 16.7 km/h 52 % 0 mm
20:08 4.7 °C -4.4 °C 1010.7 hPa WSW 6.8 km/h 12.9 km/h 52 % 0 mm
20:13 4.7 °C -4.3 °C 1010.7 hPa WSW 8.4 km/h 18.5 km/h 52 % 0 mm
20:18 4.8 °C -4.3 °C 1010.7 hPa SW 8.4 km/h 17.7 km/h 52 % 0 mm
20:23 4.8 °C -4.2 °C 1010.7 hPa WSW 4.2 km/h 14.5 km/h 52 % 0 mm
20:28 4.8 °C -4.2 °C 1010.7 hPa WSW 4.5 km/h 11.3 km/h 52 % 0 mm
20:33 4.9 °C -4.2 °C 1010.7 hPa West 2.7 km/h 9.3 km/h 52 % 0 mm
20:38 4.9 °C -3.9 °C 1010.7 hPa WSW 8.2 km/h 18.5 km/h 53 % 0 mm
20:43 4.9 °C -3.9 °C 1010.7 hPa SW 12.4 km/h 24.1 km/h 53 % 0 mm
20:48 4.9 °C -3.9 °C 1010.7 hPa WSW 9.7 km/h 20.9 km/h 53 % 0 mm
20:53 4.9 °C -3.8 °C 1010.7 hPa SW 12.9 km/h 22.5 km/h 53 % 0 mm
20:58 4.9 °C -3.8 °C 1010.7 hPa West 5.6 km/h 18.5 km/h 53 % 0 mm
21:04 5 °C -3.8 °C 1010.4 hPa WSW 7.6 km/h 18.5 km/h 53 % 0 mm
21:09 5 °C -3.8 °C 1010.7 hPa SW 8.7 km/h 16.7 km/h 53 % 0 mm
21:14 5 °C -3.6 °C 1010.4 hPa SW 13.2 km/h 22.2 km/h 54 % 0 mm
21:19 5.1 °C -3.5 °C 1010.7 hPa SSW 7.4 km/h 25.9 km/h 54 % 0 mm
21:24 5.1 °C -3.5 °C 1010.7 hPa SSW 9 km/h 14.5 km/h 54 % 0 mm
21:29 5.1 °C -3.5 °C 1010.7 hPa SW 8.9 km/h 14.8 km/h 54 % 0 mm
21:34 5.1 °C -3.3 °C 1010.7 hPa West 8.4 km/h 14.8 km/h 55 % 0 mm
21:39 5.1 °C -3.2 °C 1010.7 hPa SW 12.9 km/h 24.1 km/h 55 % 0 mm
21:44 5.2 °C -3.2 °C 1010.7 hPa SW 7.7 km/h 19.3 km/h 55 % 0 mm
21:49 5.3 °C -3.1 °C 1010.7 hPa SW 13.2 km/h 18.5 km/h 55 % 0 mm
21:54 5.3 °C -3 °C 1010.7 hPa SSW 10.6 km/h 22.2 km/h 55 % 0 mm
21:59 5.4 °C -2.9 °C 1010.7 hPa WSW 9.2 km/h 18.5 km/h 55 % 0 mm
22:04 5.6 °C -2.7 °C 1010.7 hPa SSW 11.6 km/h 20.4 km/h 55 % 0 mm
22:09 5.7 °C -2.9 °C 1011.1 hPa WSW 12.4 km/h 14.8 km/h 54 % 0 mm
22:14 5.8 °C -2.8 °C 1011.1 hPa WNW 6.9 km/h 18.5 km/h 54 % 0 mm
22:19 5.9 °C -2.7 °C 1011.1 hPa SW 5.6 km/h 24.1 km/h 54 % 0 mm
22:24 5.9 °C -2.7 °C 1011.1 hPa WSW 10.3 km/h 18.5 km/h 54 % 0 mm
22:29 6 °C -2.6 °C 1011.1 hPa WSW 13 km/h 24.1 km/h 54 % 0 mm
22:34 6.1 °C -2.6 °C 1011.1 hPa West 10.3 km/h 20.9 km/h 54 % 0 mm
22:39 6.1 °C -2.6 °C 1011.1 hPa WSW 10.1 km/h 20.4 km/h 54 % 0 mm
22:44 6.1 °C -2.3 °C 1011.4 hPa NW 12.7 km/h 24.1 km/h 55 % 0 mm
22:49 6.1 °C -2.3 °C 1011.4 hPa West 15 km/h 22.5 km/h 55 % 0 mm
22:54 6.1 °C -2.3 °C 1011.4 hPa SSW 9 km/h 22.2 km/h 55 % 0 mm
22:59 6.2 °C -2.4 °C 1011.4 hPa WSW 12.6 km/h 31.5 km/h 54 % 0 mm
23:05 6.2 °C -2.4 °C 1011.4 hPa WSW 9.7 km/h 24.1 km/h 54 % 0 mm
23:10 6.2 °C -2.2 °C 1011.4 hPa WNW 11.1 km/h 22.2 km/h 55 % 0 mm
23:15 6.2 °C -2.2 °C 1011.4 hPa WNW 9.3 km/h 18.5 km/h 55 % 0 mm
23:20 6.1 °C -2.3 °C 1011.4 hPa WSW 12.9 km/h 20.4 km/h 55 % 0 mm
23:25 6.1 °C -2.5 °C 1011.4 hPa West 13.4 km/h 22.5 km/h 54 % 0 mm
23:30 6.1 °C -2.6 °C 1011.4 hPa WSW 10.8 km/h 17.7 km/h 54 % 0 mm
23:35 6.1 °C -2.3 °C 1011.4 hPa West 12.1 km/h 20.4 km/h 55 % 0 mm
23:40 6 °C -2.6 °C 1011.4 hPa WNW 10.1 km/h 20.4 km/h 54 % 0 mm
23:45 6 °C -2.6 °C 1011.4 hPa WNW 12.6 km/h 31.5 km/h 54 % 0 mm
23:50 6 °C -2.6 °C 1011.4 hPa WNW 11.7 km/h 22.2 km/h 54 % 0 mm
23:55 5.9 °C -2.7 °C 1011.4 hPa WSW 12.7 km/h 25.9 km/h 54 % 0 mm
Crab Meadow Weather
Compliments of Weather Underground - 3 mb

Script developed by  Jim McMurry - jmcmurry@mwt.net Adapted for the template by  Wim van der Kuil - Leuven-Template.eu

Weather Terms: Flash Flood Warning - Flash flooding is occurring, imminent or highly likely. A flash flood is a flood that occurs within 6 hours of excessive rainfall and that poses a threat to life and/or property. Ice jams and dam failures can also cause flash floods. These warnings are issued on a county by county basis by the local Weather Forecast Office in Upton and are generally in effect for up to 6 hours.